Aviation Digital Data Service (ADDS)

Output produced by METARs form (1313 UTC 17 December 2018)
found at http://aviationweather.gov/metar/data/
 
KJAN 171257Z 00000KT 1SM BR BKN001 03/02 A3026 RMK AO2 SFC VIS 1 1/2 T00280022 $
KJAN 171254Z 00000KT 2 1/2SM BR BKN002 03/02 A3026 RMK AO2 SLP248 T00280022 $
KJAN 171247Z 00000KT 2 1/2SM BR FEW002 03/02 A3026 RMK AO2 T00280022 $
KJAN 171137Z 1712/1812 00000KT 3SM BR BKN002 
     FM171300 00000KT 1/2SM FG SKC 
     FM171600 30003KT P6SM SCT250 
     FM181000 00000KT 4SM BR BKN003